createdAt,value
2023-11-14T00:00:09.934Z,97.39
2023-11-14T00:02:36.444Z,97.97
2023-11-14T00:05:03.343Z,97.81
2023-11-14T00:07:29.897Z,97.85
2023-11-14T00:09:56.816Z,97.46
2023-11-14T00:12:23.617Z,97.78
2023-11-14T00:14:50.418Z,96.23
2023-11-14T00:17:18.350Z,97.83
2023-11-14T00:19:45.156Z,97.07
2023-11-14T00:22:11.728Z,97.33
2023-11-14T00:24:38.536Z,99.10
2023-11-14T00:27:05.512Z,98.76
2023-11-14T00:29:32.175Z,97.85
2023-11-14T00:31:58.808Z,97.39
2023-11-14T00:34:26.906Z,97.63
2023-11-14T00:36:53.697Z,97.67
2023-11-14T00:39:20.228Z,98.35
2023-11-14T00:41:47.080Z,98.05
2023-11-14T00:44:13.695Z,98.63
2023-11-14T00:46:40.501Z,98.10
2023-11-14T00:49:07.018Z,98.08
2023-11-14T00:51:35.062Z,98.21
2023-11-14T00:54:01.855Z,97.45
2023-11-14T00:56:28.345Z,96.40
2023-11-14T00:58:55.315Z,96.66
2023-11-14T01:01:21.883Z,97.17
2023-11-14T01:03:48.659Z,97.88
2023-11-14T01:06:15.174Z,97.80
2023-11-14T01:08:43.201Z,97.42
2023-11-14T01:11:10.536Z,98.25
2023-11-14T01:13:37.118Z,98.22
2023-11-14T01:16:04.630Z,99.40
2023-11-14T01:18:31.381Z,99.80
2023-11-14T01:20:57.918Z,99.49
2023-11-14T01:23:24.558Z,98.96
2023-11-14T01:25:52.439Z,99.61
2023-11-14T01:28:18.972Z,99.50
2023-11-14T01:30:45.803Z,100.00
2023-11-14T01:33:12.328Z,100.00
2023-11-14T01:35:38.813Z,98.19
2023-11-14T01:38:05.366Z,98.18
2023-11-14T01:40:31.849Z,99.35
2023-11-14T01:43:02.736Z,99.35
2023-11-14T01:45:29.694Z,97.96
2023-11-14T01:47:56.699Z,99.03
2023-11-14T01:50:23.799Z,99.27
2023-11-14T01:52:51.164Z,99.42
2023-11-14T01:55:17.803Z,99.21
2023-11-14T01:57:46.294Z,100.00
2023-11-14T02:00:16.637Z,99.24
2023-11-14T02:02:43.462Z,99.42
2023-11-14T02:05:11.739Z,99.82
2023-11-14T02:07:38.423Z,100.00
2023-11-14T02:10:05.897Z,99.47
2023-11-14T02:12:32.405Z,99.72
2023-11-14T02:14:58.975Z,99.49
2023-11-14T02:17:27.099Z,99.80
2023-11-14T02:19:53.774Z,100.00
2023-11-14T02:22:20.348Z,100.00
2023-11-14T02:24:50.827Z,99.62
2023-11-14T02:27:17.490Z,100.00
2023-11-14T02:29:44.480Z,100.00
2023-11-14T02:32:11.145Z,100.00
2023-11-14T02:34:37.657Z,100.00
2023-11-14T02:37:04.578Z,99.55
2023-11-14T02:39:31.137Z,99.79
2023-11-14T02:41:58.972Z,99.71
2023-11-14T02:44:25.517Z,99.76
2023-11-14T02:46:52.278Z,99.44
2023-11-14T02:49:35.010Z,99.73
2023-11-14T02:52:01.722Z,100.00
2023-11-14T02:54:28.153Z,99.82
2023-11-14T02:56:54.693Z,99.46
2023-11-14T02:59:22.524Z,99.15
2023-11-14T03:01:49.168Z,99.30
2023-11-14T03:04:15.664Z,100.00
2023-11-14T03:06:42.256Z,99.50
2023-11-14T03:09:08.891Z,100.00
2023-11-14T03:11:35.463Z,100.00
2023-11-14T03:14:01.989Z,100.00
2023-11-14T03:16:30.208Z,100.00
2023-11-14T03:18:56.747Z,100.00
2023-11-14T03:21:23.250Z,100.00
2023-11-14T03:23:49.935Z,100.00
2023-11-14T03:26:16.546Z,100.00
2023-11-14T03:28:43.043Z,100.00
2023-11-14T03:31:09.476Z,100.00
2023-11-14T03:33:38.254Z,100.00
2023-11-14T03:36:05.691Z,100.00
2023-11-14T03:38:32.918Z,100.00
2023-11-14T03:40:59.471Z,100.00
2023-11-14T03:43:25.916Z,100.00
2023-11-14T03:45:52.399Z,100.00
2023-11-14T03:48:18.923Z,100.00
2023-11-14T03:50:47.622Z,100.00
2023-11-14T03:53:14.161Z,100.00
2023-11-14T03:55:40.825Z,100.00
2023-11-14T03:58:07.282Z,100.00
2023-11-14T04:00:33.897Z,100.00
2023-11-14T04:03:01.360Z,100.00
2023-11-14T04:05:28.116Z,100.00
2023-11-14T04:07:55.998Z,100.00
2023-11-14T04:10:22.974Z,100.00
2023-11-14T04:12:49.459Z,100.00
2023-11-14T04:15:16.160Z,100.00
2023-11-14T04:17:42.824Z,100.00
2023-11-14T04:20:09.812Z,100.00
2023-11-14T04:22:36.407Z,100.00
2023-11-14T04:25:04.949Z,100.00
2023-11-14T04:27:31.717Z,100.00
2023-11-14T04:29:58.210Z,100.00
2023-11-14T04:32:24.988Z,100.00
2023-11-14T04:34:51.690Z,100.00
2023-11-14T04:37:18.210Z,100.00
2023-11-14T04:39:44.712Z,100.00
2023-11-14T04:42:12.589Z,100.00
2023-11-14T04:44:39.149Z,100.00
2023-11-14T04:47:06.303Z,100.00
2023-11-14T04:49:32.783Z,100.00
2023-11-14T04:51:59.551Z,100.00
2023-11-14T04:54:25.998Z,100.00
2023-11-14T04:56:52.509Z,100.00
2023-11-14T04:59:20.779Z,100.00
2023-11-14T05:01:47.292Z,100.00
2023-11-14T05:04:13.828Z,100.00
2023-11-14T05:06:40.330Z,100.00
2023-11-14T05:09:06.965Z,100.00
2023-11-14T05:11:37.173Z,100.00
2023-11-14T05:14:04.230Z,100.00
2023-11-14T05:16:38.645Z,100.00
2023-11-14T05:19:05.364Z,100.00
2023-11-14T05:21:31.901Z,100.00
2023-11-14T05:23:58.456Z,100.00
2023-11-14T05:26:24.911Z,100.00
2023-11-14T05:28:51.436Z,100.00
2023-11-14T05:31:17.963Z,100.00
2023-11-14T05:33:45.765Z,100.00
2023-11-14T05:36:13.050Z,100.00
2023-11-14T05:38:39.482Z,100.00
2023-11-14T05:41:06.247Z,100.00
2023-11-14T05:43:32.833Z,100.00
2023-11-14T05:45:59.435Z,100.00
2023-11-14T05:48:25.961Z,100.00
2023-11-14T05:50:53.777Z,100.00
2023-11-14T05:53:20.276Z,100.00
2023-11-14T05:55:46.795Z,100.00
2023-11-14T05:58:13.543Z,100.00
2023-11-14T06:00:40.035Z,100.00
2023-11-14T06:03:06.671Z,100.00
2023-11-14T06:05:33.361Z,100.00
2023-11-14T06:08:01.302Z,100.00
2023-11-14T06:10:27.878Z,100.00
2023-11-14T06:12:54.327Z,100.00
2023-11-14T06:15:20.978Z,100.00
2023-11-14T06:17:47.608Z,100.00
2023-11-14T06:20:14.281Z,100.00
2023-11-14T06:22:40.923Z,100.00
2023-11-14T06:25:09.359Z,100.00
2023-11-14T06:27:36.094Z,100.00
2023-11-14T06:30:02.766Z,100.00
2023-11-14T06:32:29.379Z,100.00
2023-11-14T06:34:56.096Z,100.00
2023-11-14T06:37:22.673Z,100.00
2023-11-14T06:39:49.187Z,100.00
2023-11-14T06:42:16.949Z,100.00
2023-11-14T06:44:43.841Z,100.00
2023-11-14T06:47:10.434Z,100.00
2023-11-14T06:49:37.084Z,100.00
2023-11-14T06:52:03.963Z,100.00
2023-11-14T06:54:30.479Z,100.00
2023-11-14T06:56:57.211Z,100.00
2023-11-14T06:59:25.037Z,100.00
2023-11-14T07:01:51.556Z,100.00
2023-11-14T07:04:20.152Z,100.00
2023-11-14T07:06:47.353Z,100.00
2023-11-14T07:09:13.832Z,100.00
2023-11-14T07:11:40.368Z,100.00
2023-11-14T07:14:06.840Z,100.00
2023-11-14T07:16:34.788Z,100.00
2023-11-14T07:19:01.370Z,100.00
2023-11-14T07:21:28.245Z,100.00
2023-11-14T07:23:54.823Z,100.00
2023-11-14T07:26:21.290Z,100.00
2023-11-14T07:28:48.166Z,100.00
2023-11-14T07:31:14.703Z,100.00
2023-11-14T07:33:42.668Z,100.00
2023-11-14T07:36:09.367Z,100.00
2023-11-14T07:38:35.814Z,100.00
2023-11-14T07:41:02.306Z,100.00
2023-11-14T07:43:28.797Z,100.00
2023-11-14T07:45:55.348Z,100.00
2023-11-14T07:48:21.843Z,100.00
2023-11-14T07:50:49.700Z,100.00
2023-11-14T07:53:16.194Z,100.00
2023-11-14T07:55:43.351Z,100.00
2023-11-14T07:58:09.928Z,100.00
2023-11-14T08:00:36.616Z,100.00
2023-11-14T08:03:03.510Z,100.00
2023-11-14T08:05:30.360Z,100.00
2023-11-14T08:07:58.252Z,100.00
2023-11-14T08:10:24.700Z,100.00
2023-11-14T08:12:51.228Z,100.00
2023-11-14T08:15:17.778Z,100.00
2023-11-14T08:17:44.409Z,100.00
2023-11-14T08:20:11.946Z,100.00
2023-11-14T08:22:38.558Z,100.00
2023-11-14T08:25:07.519Z,100.00
2023-11-14T08:27:34.060Z,100.00
2023-11-14T08:30:00.590Z,100.00
2023-11-14T08:32:27.237Z,100.00
2023-11-14T08:34:53.847Z,100.00
2023-11-14T08:37:23.508Z,100.00
2023-11-14T08:39:50.874Z,100.00
2023-11-14T08:42:18.759Z,100.00
2023-11-14T08:44:45.534Z,100.00
2023-11-14T08:47:12.193Z,100.00
2023-11-14T08:49:38.661Z,100.00
2023-11-14T08:52:06.161Z,100.00
2023-11-14T08:54:32.682Z,100.00
2023-11-14T08:56:59.142Z,100.00
2023-11-14T08:59:26.960Z,100.00
2023-11-14T09:01:53.556Z,100.00
2023-11-14T09:04:20.019Z,100.00
2023-11-14T09:06:47.390Z,100.00
2023-11-14T09:09:14.770Z,100.00
2023-11-14T09:11:41.260Z,100.00
2023-11-14T09:14:07.757Z,100.00
2023-11-14T09:16:35.673Z,100.00
2023-11-14T09:19:02.452Z,100.00
2023-11-14T09:21:29.053Z,100.00
2023-11-14T09:23:55.583Z,100.00
2023-11-14T09:26:22.246Z,100.00
2023-11-14T09:28:48.720Z,100.00
2023-11-14T09:31:15.266Z,100.00
2023-11-14T09:33:44.056Z,99.99
2023-11-14T09:36:11.051Z,100.00
2023-11-14T09:38:37.494Z,100.00
2023-11-14T09:41:04.504Z,100.00
2023-11-14T09:43:31.095Z,100.00
2023-11-14T09:45:57.739Z,100.00
2023-11-14T09:48:24.250Z,100.00
2023-11-14T09:50:52.966Z,100.00
2023-11-14T09:53:21.900Z,100.00
2023-11-14T09:55:48.534Z,100.00
2023-11-14T09:58:15.098Z,100.00
2023-11-14T10:00:41.603Z,100.00
2023-11-14T10:03:08.274Z,100.00
2023-11-14T10:05:34.816Z,100.00
2023-11-14T10:08:03.014Z,100.00
2023-11-14T10:10:29.689Z,100.00
2023-11-14T10:12:56.250Z,100.00
2023-11-14T10:15:29.646Z,100.00
2023-11-14T10:17:56.449Z,100.00
2023-11-14T10:20:26.495Z,100.00
2023-11-14T10:23:04.836Z,100.00
2023-11-14T10:25:34.940Z,100.00
2023-11-14T10:28:03.370Z,100.00
2023-11-14T10:30:45.353Z,100.00
2023-11-14T10:33:12.738Z,100.00
2023-11-14T10:35:40.833Z,100.00
2023-11-14T10:38:16.162Z,100.00
2023-11-14T10:40:46.281Z,100.00
2023-11-14T10:43:12.871Z,100.00
2023-11-14T10:45:39.577Z,100.00
2023-11-14T10:48:06.580Z,99.04
2023-11-14T10:50:33.533Z,100.00
2023-11-14T10:53:00.551Z,100.00
2023-11-14T10:55:27.659Z,100.00
2023-11-14T10:57:55.554Z,99.57
2023-11-14T11:00:22.488Z,99.47
2023-11-14T11:02:51.347Z,99.39
2023-11-14T11:05:24.909Z,99.46
2023-11-14T11:07:57.745Z,99.35
2023-11-14T11:10:24.482Z,99.59
2023-11-14T11:12:52.379Z,100.00
2023-11-14T11:15:20.365Z,99.76
2023-11-14T11:17:48.031Z,100.00
2023-11-14T11:20:23.768Z,99.40
2023-11-14T11:23:04.331Z,100.00
2023-11-14T11:25:31.277Z,100.00
2023-11-14T11:27:58.382Z,100.00
2023-11-14T11:30:27.217Z,100.00
2023-11-14T11:32:53.756Z,98.25
2023-11-14T11:35:27.474Z,98.55
2023-11-14T11:37:56.271Z,98.96
2023-11-14T11:40:24.398Z,99.18
2023-11-14T11:42:51.174Z,98.73
2023-11-14T11:45:32.360Z,98.68
2023-11-14T11:47:59.424Z,98.40
2023-11-14T11:50:26.925Z,98.36
2023-11-14T11:53:00.920Z,98.26
2023-11-14T11:55:27.440Z,99.03
2023-11-14T11:57:58.768Z,98.89
2023-11-14T12:00:25.639Z,98.05
2023-11-14T12:02:55.645Z,98.97
2023-11-14T12:05:22.755Z,98.79
2023-11-14T12:07:49.324Z,99.17
2023-11-14T12:10:16.234Z,100.00
2023-11-14T12:12:42.741Z,100.00
2023-11-14T12:15:10.025Z,100.00
2023-11-14T12:17:36.597Z,100.00
2023-11-14T12:20:08.421Z,100.00
2023-11-14T12:22:37.411Z,100.00
2023-11-14T12:25:05.517Z,100.00
2023-11-14T12:27:32.906Z,100.00
2023-11-14T12:30:07.375Z,100.00
2023-11-14T12:32:35.062Z,100.00
2023-11-14T12:35:02.015Z,100.00
2023-11-14T12:37:30.001Z,100.00
2023-11-14T12:40:04.300Z,100.00
2023-11-14T12:42:31.150Z,100.00
2023-11-14T12:44:58.096Z,100.00
2023-11-14T12:47:26.402Z,100.00
2023-11-14T12:49:52.929Z,100.00
2023-11-14T12:52:24.073Z,100.00
2023-11-14T12:54:51.907Z,100.00
2023-11-14T12:57:18.612Z,100.00
2023-11-14T12:59:45.218Z,100.00
2023-11-14T13:02:11.884Z,100.00
2023-11-14T13:04:39.282Z,100.00
2023-11-14T13:07:05.841Z,100.00
2023-11-14T13:09:33.056Z,100.00
2023-11-14T13:12:01.396Z,100.00
2023-11-14T13:14:27.905Z,100.00
2023-11-14T13:16:54.602Z,100.00
2023-11-14T13:19:21.246Z,100.00
2023-11-14T13:21:47.690Z,100.00
2023-11-14T13:24:14.334Z,100.00
2023-11-14T13:26:40.893Z,100.00
2023-11-14T13:29:08.784Z,100.00
2023-11-14T13:31:35.506Z,100.00
2023-11-14T13:34:02.206Z,100.00
2023-11-14T13:36:28.751Z,100.00
2023-11-14T13:38:55.217Z,100.00
2023-11-14T13:41:21.839Z,100.00
2023-11-14T13:43:48.331Z,100.00
2023-11-14T13:46:24.179Z,100.00
2023-11-14T13:48:54.783Z,100.00
2023-11-14T13:51:21.461Z,100.00
2023-11-14T13:53:48.004Z,100.00
2023-11-14T13:56:14.889Z,100.00
2023-11-14T13:58:41.766Z,100.00
2023-11-14T14:01:08.382Z,100.00
2023-11-14T14:03:36.611Z,100.00
2023-11-14T14:06:04.277Z,100.00
2023-11-14T14:08:30.884Z,100.00
2023-11-14T14:10:57.342Z,100.00
2023-11-14T14:13:23.815Z,100.00
2023-11-14T14:15:50.592Z,100.00
2023-11-14T14:18:17.188Z,100.00
2023-11-14T14:20:45.065Z,100.00
2023-11-14T14:23:11.751Z,100.00
2023-11-14T14:25:38.657Z,100.00
2023-11-14T14:28:05.222Z,100.00
2023-11-14T14:30:31.688Z,100.00
2023-11-14T14:32:58.174Z,100.00
2023-11-14T14:35:24.787Z,100.00
2023-11-14T14:37:52.626Z,100.00
2023-11-14T14:40:19.436Z,100.00
2023-11-14T14:42:45.990Z,100.00
2023-11-14T14:45:12.504Z,100.00
2023-11-14T14:47:40.133Z,100.00
2023-11-14T14:50:08.925Z,100.00
2023-11-14T14:52:36.083Z,100.00
2023-11-14T14:55:04.972Z,100.00
2023-11-14T14:57:31.574Z,100.00
2023-11-14T14:59:58.037Z,100.00
2023-11-14T15:02:25.340Z,100.00
2023-11-14T15:04:52.147Z,100.00
2023-11-14T15:07:18.662Z,100.00
2023-11-14T15:09:45.710Z,100.00
2023-11-14T15:12:13.555Z,100.00
2023-11-14T15:14:40.124Z,100.00
2023-11-14T15:17:07.287Z,100.00
2023-11-14T15:19:33.758Z,100.00
2023-11-14T15:22:00.328Z,100.00
2023-11-14T15:24:27.205Z,100.00
2023-11-14T15:26:56.277Z,100.00
2023-11-14T15:29:25.153Z,100.00
2023-11-14T15:31:51.660Z,100.00
2023-11-14T15:34:18.220Z,100.00
2023-11-14T15:36:44.640Z,100.00
2023-11-14T15:39:11.171Z,100.00
2023-11-14T15:41:37.759Z,100.00
2023-11-14T15:44:04.968Z,100.00
2023-11-14T15:46:33.155Z,100.00
2023-11-14T15:48:59.673Z,100.00
2023-11-14T15:51:26.314Z,100.00
2023-11-14T15:53:52.942Z,100.00
2023-11-14T15:56:19.868Z,100.00
2023-11-14T15:58:46.504Z,100.00
2023-11-14T16:01:13.050Z,100.00
2023-11-14T16:03:41.184Z,100.00
2023-11-14T16:06:07.998Z,100.00
2023-11-14T16:08:35.084Z,100.00
2023-11-14T16:11:01.686Z,100.00
2023-11-14T16:13:28.667Z,100.00
2023-11-14T16:15:55.510Z,100.00
2023-11-14T16:18:22.469Z,100.00
2023-11-14T16:20:50.392Z,100.00
2023-11-14T16:23:16.930Z,100.00
2023-11-14T16:25:43.841Z,100.00
2023-11-14T16:28:10.552Z,100.00
2023-11-14T16:30:37.079Z,100.00
2023-11-14T16:33:03.753Z,100.00
2023-11-14T16:35:30.538Z,100.00
2023-11-14T16:37:58.414Z,100.00
2023-11-14T16:40:24.983Z,100.00
2023-11-14T16:42:51.590Z,100.00
2023-11-14T16:45:18.200Z,100.00
2023-11-14T16:47:45.093Z,100.00
2023-11-14T16:50:11.994Z,100.00
2023-11-14T16:52:38.757Z,100.00
2023-11-14T16:55:08.958Z,100.00
2023-11-14T16:57:35.806Z,100.00
2023-11-14T17:00:02.394Z,100.00
2023-11-14T17:02:28.876Z,100.00
2023-11-14T17:04:55.528Z,100.00
2023-11-14T17:07:22.196Z,100.00
2023-11-14T17:09:51.416Z,100.00
2023-11-14T17:12:19.819Z,100.00
2023-11-14T17:14:46.403Z,100.00
2023-11-14T17:17:12.887Z,100.00
2023-11-14T17:19:39.350Z,100.00
2023-11-14T17:22:05.876Z,100.00
2023-11-14T17:24:32.374Z,100.00
2023-11-14T17:26:58.994Z,100.00
2023-11-14T17:29:26.966Z,100.00
2023-11-14T17:31:53.542Z,100.00
2023-11-14T17:34:20.359Z,100.00
2023-11-14T17:36:46.883Z,100.00
2023-11-14T17:39:13.412Z,100.00
2023-11-14T17:41:39.938Z,100.00
2023-11-14T17:44:07.275Z,100.00
2023-11-14T17:46:35.283Z,100.00
2023-11-14T17:49:02.041Z,100.00
2023-11-14T17:51:37.568Z,100.00
2023-11-14T17:54:05.912Z,100.00
2023-11-14T17:56:32.639Z,100.00
2023-11-14T17:58:59.517Z,100.00
2023-11-14T18:01:26.101Z,100.00
2023-11-14T18:03:54.506Z,100.00
2023-11-14T18:06:21.060Z,100.00
2023-11-14T18:08:47.693Z,100.00
2023-11-14T18:11:14.543Z,100.00
2023-11-14T18:13:41.061Z,100.00
2023-11-14T18:16:08.341Z,100.00
2023-11-14T18:18:34.859Z,100.00
2023-11-14T18:21:02.801Z,100.00
2023-11-14T18:23:29.283Z,100.00
2023-11-14T18:25:55.915Z,100.00
2023-11-14T18:28:22.629Z,100.00
2023-11-14T18:30:49.198Z,100.00
2023-11-14T18:33:15.688Z,100.00
2023-11-14T18:35:42.526Z,100.00
2023-11-14T18:38:10.452Z,100.00
2023-11-14T18:40:36.918Z,100.00
2023-11-14T18:43:03.502Z,100.00
2023-11-14T18:45:30.005Z,100.00
2023-11-14T18:47:56.581Z,100.00
2023-11-14T18:50:23.167Z,100.00
2023-11-14T18:52:49.623Z,100.00
2023-11-14T18:55:17.588Z,100.00
2023-11-14T18:57:44.075Z,100.00
2023-11-14T19:00:11.725Z,100.00
2023-11-14T19:02:38.442Z,100.00
2023-11-14T19:05:06.058Z,100.00
2023-11-14T19:07:32.570Z,100.00
2023-11-14T19:09:59.086Z,100.00
2023-11-14T19:12:26.896Z,100.00
2023-11-14T19:14:53.617Z,100.00
2023-11-14T19:17:20.233Z,100.00
2023-11-14T19:19:47.360Z,100.00
2023-11-14T19:22:38.832Z,100.00
2023-11-14T19:25:02.805Z,100.00
2023-11-14T19:27:32.377Z,100.00
2023-11-14T19:29:58.819Z,100.00
2023-11-14T19:32:25.886Z,100.00
2023-11-14T19:34:52.610Z,100.00
2023-11-14T19:37:19.359Z,100.00
2023-11-14T19:39:45.945Z,100.00
2023-11-14T19:42:12.593Z,100.00
2023-11-14T19:44:40.488Z,100.00
2023-11-14T19:47:06.965Z,100.00
2023-11-14T19:49:39.257Z,100.00
2023-11-14T19:52:11.391Z,100.00
2023-11-14T19:54:37.863Z,100.00
2023-11-14T19:57:04.656Z,100.00
2023-11-14T19:59:33.472Z,100.00
2023-11-14T20:02:01.485Z,100.00
2023-11-14T20:04:28.031Z,100.00
2023-11-14T20:06:54.615Z,100.00
2023-11-14T20:09:21.119Z,100.00
2023-11-14T20:11:47.708Z,100.00
2023-11-14T20:14:14.294Z,100.00
2023-11-14T20:16:41.150Z,100.00
2023-11-14T20:19:09.345Z,100.00
2023-11-14T20:21:35.799Z,100.00
2023-11-14T20:24:02.299Z,100.00
2023-11-14T20:26:29.021Z,100.00
2023-11-14T20:28:55.632Z,100.00
2023-11-14T20:31:22.211Z,100.00
2023-11-14T20:33:48.696Z,100.00
2023-11-14T20:36:16.711Z,100.00
2023-11-14T20:38:43.314Z,100.00
2023-11-14T20:41:09.957Z,100.00
2023-11-14T20:43:36.490Z,100.00
2023-11-14T20:46:03.123Z,100.00
2023-11-14T20:48:30.007Z,100.00
2023-11-14T20:50:56.638Z,100.00
2023-11-14T20:53:24.677Z,100.00
2023-11-14T20:55:51.492Z,100.00
2023-11-14T20:58:18.209Z,100.00
2023-11-14T21:00:44.743Z,100.00
2023-11-14T21:03:11.283Z,100.00
2023-11-14T21:05:37.799Z,100.00
2023-11-14T21:08:04.591Z,100.00
2023-11-14T21:10:32.408Z,100.00
2023-11-14T21:12:58.888Z,100.00
2023-11-14T21:15:25.362Z,100.00
2023-11-14T21:17:53.425Z,100.00
2023-11-14T21:20:21.204Z,100.00
2023-11-14T21:22:48.177Z,100.00
2023-11-14T21:25:15.235Z,100.00
2023-11-14T21:27:43.338Z,100.00
2023-11-14T21:30:10.030Z,100.00
2023-11-14T21:32:36.548Z,100.00
2023-11-14T21:35:03.272Z,100.00
2023-11-14T21:37:29.780Z,100.00
2023-11-14T21:39:56.258Z,100.00
2023-11-14T21:42:22.768Z,100.00
2023-11-14T21:44:50.600Z,100.00
2023-11-14T21:47:17.055Z,100.00
2023-11-14T21:49:43.515Z,100.00
2023-11-14T21:52:09.954Z,100.00
2023-11-14T21:54:36.496Z,100.00
2023-11-14T21:57:03.330Z,100.00
2023-11-14T21:59:29.866Z,100.00
2023-11-14T22:01:57.908Z,100.00
2023-11-14T22:04:24.623Z,100.00
2023-11-14T22:06:51.151Z,100.00
2023-11-14T22:09:17.777Z,100.00
2023-11-14T22:11:44.357Z,100.00
2023-11-14T22:14:11.519Z,100.00
2023-11-14T22:16:38.045Z,100.00
2023-11-14T22:19:05.904Z,100.00
2023-11-14T22:21:32.492Z,100.00
2023-11-14T22:23:59.011Z,100.00
2023-11-14T22:26:25.471Z,100.00
2023-11-14T22:28:54.885Z,100.00
2023-11-14T22:31:22.262Z,100.00
2023-11-14T22:33:48.698Z,100.00
2023-11-14T22:36:17.389Z,100.00
2023-11-14T22:38:44.043Z,100.00
2023-11-14T22:41:13.446Z,100.00
2023-11-14T22:43:40.031Z,100.00
2023-11-14T22:46:06.956Z,100.00
2023-11-14T22:48:33.825Z,100.00
2023-11-14T22:51:00.401Z,100.00
2023-11-14T22:53:28.254Z,100.00
2023-11-14T22:55:54.698Z,100.00
2023-11-14T22:58:21.166Z,100.00
2023-11-14T23:00:47.695Z,100.00
2023-11-14T23:03:16.247Z,100.00
2023-11-14T23:05:43.680Z,100.00
2023-11-14T23:08:10.143Z,100.00
2023-11-14T23:10:38.674Z,100.00
2023-11-14T23:13:06.357Z,100.00
2023-11-14T23:15:32.904Z,100.00
2023-11-14T23:17:59.519Z,100.00
2023-11-14T23:20:26.150Z,100.00
2023-11-14T23:22:52.716Z,100.00
2023-11-14T23:25:19.234Z,100.00
2023-11-14T23:27:47.039Z,100.00
2023-11-14T23:30:14.362Z,100.00
2023-11-14T23:32:41.224Z,100.00
2023-11-14T23:35:08.684Z,100.00
2023-11-14T23:37:35.965Z,100.00
2023-11-14T23:40:02.661Z,100.00
2023-11-14T23:42:29.395Z,100.00
2023-11-14T23:44:57.723Z,100.00
2023-11-14T23:47:24.417Z,100.00
2023-11-14T23:49:51.624Z,100.00
2023-11-14T23:52:18.254Z,100.00
2023-11-14T23:54:44.900Z,100.00
2023-11-14T23:57:11.508Z,100.00
2023-11-14T23:59:38.296Z,100.00
